Time;durP1;ratioP1;P1;durP2;ratioP2;P2;SDS_P1;SDS_P2;PMS_P1;PMS_P2;Temp;Humidity;BMP_temperature;BMP_pressure;BME280_temperature;BME280_humidity;BME280_pressure;Samples;Min_cycle;Max_cycle;Signal;HPM_P1;HPM_P2
2023/06/04 00:01:21;;;;;;;8.37;5.37;;;;;;;16.50;65.16;98066.19;5090467;28;20325;-73
2023/06/04 00:03:48;;;;;;;4.77;4.37;;;;;;;16.53;64.68;98071.06;5090245;28;20220;-73
2023/06/04 00:06:14;;;;;;;5.80;5.30;;;;;;;16.62;65.41;98064.16;5089968;28;20230;-73
2023/06/04 00:08:41;;;;;;;5.70;5.20;;;;;;;16.51;65.92;98075.88;5089967;28;20208;-74
2023/06/04 00:11:07;;;;;;;7.07;5.60;;;;;;;16.43;66.63;98075.53;5090302;28;20207;-74
2023/06/04 00:13:33;;;;;;;8.00;5.50;;;;;;;16.38;67.33;98076.25;5090309;28;20197;-73
2023/06/04 00:15:59;;;;;;;5.63;5.13;;;;;;;16.33;67.86;98065.47;5090113;28;20228;-73
2023/06/04 00:18:26;;;;;;;6.00;5.30;;;;;;;16.30;68.07;98070.56;5090149;28;20207;-73
2023/06/04 00:20:52;;;;;;;5.97;5.40;;;;;;;16.28;67.75;98073.47;5090081;28;20262;-73
2023/06/04 00:23:19;;;;;;;7.10;5.53;;;;;;;16.17;69.38;98062.91;5089597;28;20224;-73
2023/06/04 00:25:46;;;;;;;6.30;5.03;;;;;;;16.10;69.69;98067.69;5089813;28;20628;-73
2023/06/04 00:28:12;;;;;;;7.33;5.37;;;;;;;16.14;69.89;98055.38;5089806;28;20204;-73
2023/06/04 00:30:39;;;;;;;7.10;6.07;;;;;;;16.15;69.95;98065.06;5089746;28;20299;-73
2023/06/04 00:33:05;;;;;;;7.53;5.43;;;;;;;16.12;70.15;98060.19;5089780;28;20196;-73
2023/06/04 00:35:33;;;;;;;7.00;5.33;;;;;;;15.91;72.12;98055.69;5078976;28;20224;-73
2023/06/04 00:37:59;;;;;;;5.80;5.20;;;;;;;15.84;72.20;98060.44;5076150;28;20208;-73
2023/06/04 00:40:26;;;;;;;5.70;4.97;;;;;;;15.78;72.28;98056.88;5076158;28;20208;-73
2023/06/04 00:42:52;;;;;;;5.33;4.83;;;;;;;15.83;71.88;98064.97;5076028;28;20591;-73
2023/06/04 00:45:20;;;;;;;6.40;5.17;;;;;;;15.82;71.43;98063.38;5075829;28;20291;-73
2023/06/04 00:47:46;;;;;;;5.70;5.10;;;;;;;15.77;70.68;98071.34;5076004;28;20200;-73
2023/06/04 00:50:12;;;;;;;5.90;4.93;;;;;;;15.75;71.87;98076.16;5075655;28;20676;-73
2023/06/04 00:52:39;;;;;;;5.83;5.20;;;;;;;15.69;72.19;98079.84;5076014;28;20204;-73
2023/06/04 00:55:05;;;;;;;7.43;5.33;;;;;;;15.89;71.71;98084.63;5075671;28;20208;-73
2023/06/04 00:57:32;;;;;;;7.53;5.57;;;;;;;15.76;72.28;98077.78;5075752;28;20228;-73
2023/06/04 00:59:58;;;;;;;6.83;5.20;;;;;;;15.69;72.46;98082.50;5075636;28;20231;-73
2023/06/04 01:02:27;;;;;;;5.70;5.17;;;;;;;15.53;74.27;98088.78;5075886;28;20208;-73
2023/06/04 01:05:08;;;;;;;6.50;5.73;;;;;;;15.32;75.26;98089.53;5075801;28;20224;-73
2023/06/04 01:07:36;;;;;;;7.03;5.30;;;;;;;15.29;76.07;98089.22;5075834;28;20224;-73
2023/06/04 01:10:04;;;;;;;7.60;5.17;;;;;;;15.30;75.82;98085.47;5075754;28;20200;-73
2023/06/04 01:12:30;;;;;;;6.83;5.43;;;;;;;15.18;76.15;98088.28;5075705;28;20208;-73
2023/06/04 01:14:57;;;;;;;7.50;5.73;;;;;;;15.29;75.83;98089.22;5075657;28;20207;-73
2023/06/04 01:17:37;;;;;;;6.63;5.90;;;;;;;15.27;73.77;98094.00;5075270;28;20228;-73
2023/06/04 01:20:37;;;;;;;7.57;4.90;;;;;;;15.25;75.74;98088.88;5075560;28;20192;-73
2023/06/04 01:23:27;;;;;;;5.60;5.00;;;;;;;15.18;76.67;98087.44;5075190;28;20224;-73
2023/06/04 01:25:57;;;;;;;6.50;5.23;;;;;;;15.12;76.22;98089.25;5075334;28;20224;-73
2023/06/04 01:28:26;;;;;;;7.90;5.30;;;;;;;15.22;75.29;98084.03;5075124;28;20659;-73
2023/06/04 01:30:56;;;;;;;6.63;5.47;;;;;;;15.08;76.92;98090.00;5073812;28;20216;-73
2023/06/04 01:33:23;;;;;;;7.63;6.03;;;;;;;15.13;76.34;98090.06;5075257;28;20235;-73
2023/06/04 01:35:50;;;;;;;6.07;5.27;;;;;;;15.07;77.44;98086.50;5075176;28;20229;-73
2023/06/04 01:38:16;;;;;;;6.40;5.47;;;;;;;15.00;77.42;98085.88;5075216;28;20212;-73
2023/06/04 01:40:43;;;;;;;7.40;5.60;;;;;;;14.94;79.17;98076.16;5075016;28;20211;-73
2023/06/04 01:43:09;;;;;;;6.70;5.37;;;;;;;14.95;78.57;98076.94;5074950;28;20216;-73
2023/06/04 01:45:36;;;;;;;7.40;6.13;;;;;;;14.98;78.28;98082.63;5074561;28;20224;-73
2023/06/04 01:48:04;;;;;;;6.27;5.57;;;;;;;14.99;77.61;98080.75;5074015;28;20692;-73
2023/06/04 01:50:30;;;;;;;6.40;5.33;;;;;;;14.94;77.26;98086.88;5074636;28;20565;-73
2023/06/04 01:52:57;;;;;;;10.07;5.83;;;;;;;14.78;79.35;98086.84;5074897;28;20213;-73
2023/06/04 01:55:25;;;;;;;9.60;5.37;;;;;;;14.66;80.05;98088.81;5074366;28;20204;-73
2023/06/04 01:57:51;;;;;;;10.20;5.67;;;;;;;14.56;80.37;98081.44;5074701;28;20212;-73
2023/06/04 02:00:18;;;;;;;5.90;5.30;;;;;;;14.59;80.10;98077.47;5074693;28;20220;-73
2023/06/04 02:02:47;;;;;;;7.10;5.63;;;;;;;14.54;80.70;98086.22;5074637;28;20205;-73
2023/06/04 02:05:14;;;;;;;5.57;5.00;;;;;;;14.63;80.26;98078.59;5074447;28;20316;-73
2023/06/04 02:07:44;;;;;;;8.93;5.73;;;;;;;14.75;78.92;98076.66;5074289;28;20220;-73
2023/06/04 02:10:12;;;;;;;9.43;6.03;;;;;;;14.71;79.79;98081.69;5074830;28;20330;-73
2023/06/04 02:12:54;;;;;;;8.33;5.53;;;;;;;14.77;80.00;98080.72;5074455;28;20318;-73
2023/06/04 02:15:20;;;;;;;6.67;5.30;;;;;;;14.77;78.05;98085.25;5074468;28;20185;-73
2023/06/04 02:17:47;;;;;;;5.70;5.20;;;;;;;14.75;77.09;98090.03;5074401;28;20212;-73
2023/06/04 02:20:14;;;;;;;5.90;5.10;;;;;;;14.75;76.58;98082.81;5074316;28;20212;-73
2023/06/04 02:22:40;;;;;;;6.40;4.77;;;;;;;14.79;75.19;98086.63;5074071;28;20220;-73
2023/06/04 02:25:08;;;;;;;5.87;4.43;;;;;;;14.85;69.53;98087.50;5074204;28;20217;-73
2023/06/04 02:27:35;;;;;;;7.80;5.23;;;;;;;14.83;72.95;98087.75;5073887;28;20251;-73
2023/06/04 02:30:01;;;;;;;6.37;4.83;;;;;;;14.70;73.75;98092.63;5073897;28;20690;-73
2023/06/04 02:32:28;;;;;;;5.47;4.03;;;;;;;14.81;67.72;98086.38;5073745;28;20205;-73
2023/06/04 02:34:55;;;;;;;8.77;4.17;;;;;;;14.90;67.00;98096.44;5074069;28;20228;-73
2023/06/04 02:37:22;;;;;;;5.80;3.70;;;;;;;14.87;68.28;98094.25;5075003;28;20232;-73
2023/06/04 02:39:48;;;;;;;3.83;2.83;;;;;;;14.97;63.09;98090.91;5074048;28;20223;-73
2023/06/04 02:42:15;;;;;;;5.20;3.13;;;;;;;14.96;61.70;98092.78;5073860;28;20200;-73
2023/06/04 02:44:41;;;;;;;7.43;3.87;;;;;;;14.94;64.90;98094.91;5073854;28;20227;-73
2023/06/04 02:47:08;;;;;;;6.60;4.30;;;;;;;14.85;66.49;98093.69;5073834;28;20233;-73
2023/06/04 02:49:34;;;;;;;5.70;4.50;;;;;;;14.85;66.47;98099.03;5073729;28;20574;-73
2023/06/04 02:52:00;;;;;;;4.57;3.33;;;;;;;14.79;65.98;98091.19;5073844;28;20205;-73
2023/06/04 02:54:27;;;;;;;6.77;5.23;;;;;;;14.61;72.43;98096.78;5073546;28;20201;-73
2023/06/04 02:56:53;;;;;;;6.23;5.00;;;;;;;14.50;74.35;98094.97;5073688;28;20225;-73
2023/06/04 02:59:20;;;;;;;5.90;4.87;;;;;;;14.56;72.52;98094.81;5073487;28;20208;-73
2023/06/04 03:01:46;;;;;;;6.97;4.87;;;;;;;14.49;73.87;98094.19;5073698;28;20204;-74
2023/06/04 03:04:15;;;;;;;5.27;4.77;;;;;;;14.40;75.41;98095.63;5073606;28;20226;-74
2023/06/04 03:06:44;;;;;;;6.97;5.00;;;;;;;14.45;74.31;98090.38;5073590;28;20228;-74
2023/06/04 03:09:11;;;;;;;5.10;3.57;;;;;;;14.44;69.25;98098.63;5073546;28;20250;-74
2023/06/04 03:11:38;;;;;;;5.27;3.90;;;;;;;14.35;70.59;98100.06;5072953;28;20223;-74
2023/06/04 03:14:05;;;;;;;5.60;4.13;;;;;;;14.34;70.70;98101.13;5073487;28;20200;-74
2023/06/04 03:16:31;;;;;;;4.17;3.73;;;;;;;14.41;68.72;98101.78;5073488;28;20224;-74
2023/06/04 03:18:57;;;;;;;5.37;4.53;;;;;;;14.29;72.49;98109.06;5073454;28;20201;-74
2023/06/04 03:21:24;;;;;;;6.30;5.20;;;;;;;14.25;75.95;98100.69;5073428;28;20207;-74
2023/06/04 03:23:51;;;;;;;5.43;4.33;;;;;;;14.30;73.64;98102.66;5072881;28;20227;-74
2023/06/04 03:26:17;;;;;;;6.53;4.57;;;;;;;14.33;72.02;98105.66;5073354;28;20229;-74
2023/06/04 03:28:44;;;;;;;5.77;4.50;;;;;;;14.34;74.07;98112.63;5073154;28;20679;-74
2023/06/04 03:31:10;;;;;;;5.30;4.80;;;;;;;14.26;75.14;98113.03;5073133;28;20208;-73
2023/06/04 03:33:36;;;;;;;5.47;4.63;;;;;;;14.16;73.62;98110.13;5073121;28;20205;-73
2023/06/04 03:36:03;;;;;;;6.60;4.67;;;;;;;14.30;75.29;98111.47;5073279;28;20229;-73
2023/06/04 03:38:29;;;;;;;6.13;4.43;;;;;;;14.30;74.09;98116.81;5073317;28;20224;-73
2023/06/04 03:40:56;;;;;;;6.03;4.30;;;;;;;14.27;72.90;98116.50;5072947;28;20216;-73
2023/06/04 03:43:22;;;;;;;4.20;3.80;;;;;;;14.17;73.93;98113.63;5073126;28;20303;-73
2023/06/04 03:45:49;;;;;;;6.33;4.87;;;;;;;14.14;75.98;98119.44;5073136;28;20235;-73
2023/06/04 03:48:15;;;;;;;5.77;4.50;;;;;;;14.19;76.32;98125.69;5073204;28;20243;-73
2023/06/04 03:50:42;;;;;;;6.77;5.70;;;;;;;14.08;77.55;98118.56;5073160;28;20314;-73
2023/06/04 03:53:08;;;;;;;5.93;4.50;;;;;;;14.04;75.25;98121.94;5073171;28;20236;-73
2023/06/04 03:55:35;;;;;;;6.63;4.90;;;;;;;14.16;75.91;98122.69;5073149;28;20220;-73
2023/06/04 03:58:01;;;;;;;5.47;4.20;;;;;;;14.03;75.29;98123.81;5073165;28;20211;-73
2023/06/04 04:00:28;;;;;;;5.10;4.00;;;;;;;14.02;76.39;98124.84;5073118;28;20252;-73
2023/06/04 04:02:56;;;;;;;5.57;4.67;;;;;;;13.95;76.92;98123.38;5072810;28;20663;-73
2023/06/04 04:05:22;;;;;;;5.67;4.93;;;;;;;13.89;75.63;98125.13;5072843;28;20224;-73
2023/06/04 04:07:49;;;;;;;6.47;4.70;;;;;;;13.66;77.13;98137.75;5072957;28;20291;-73
2023/06/04 04:10:15;;;;;;;6.23;4.30;;;;;;;13.81;75.79;98122.84;5074694;28;20215;-73
2023/06/04 04:12:42;;;;;;;6.33;4.63;;;;;;;13.91;77.39;98128.38;5076671;28;20210;-73
2023/06/04 04:15:08;;;;;;;6.37;4.97;;;;;;;13.76;77.37;98128.09;5076651;28;20200;-73
2023/06/04 04:17:35;;;;;;;6.13;4.50;;;;;;;13.73;77.40;98135.75;5076370;28;20215;-73
2023/06/04 04:20:05;;;;;;;6.37;4.90;;;;;;;13.66;77.52;98130.53;5076674;28;20211;-73
2023/06/04 04:22:33;;;;;;;4.73;4.33;;;;;;;13.64;77.33;98137.16;5076259;28;20189;-73
2023/06/04 04:24:59;;;;;;;5.00;4.50;;;;;;;13.75;77.03;98142.47;5076082;28;20204;-73
2023/06/04 04:27:26;;;;;;;4.53;4.13;;;;;;;13.69;77.22;98138.09;5076324;28;20239;-73
2023/06/04 04:29:59;;;;;;;7.40;4.57;;;;;;;13.72;78.62;98140.31;5076364;28;20207;-73
2023/06/04 04:32:26;;;;;;;5.83;4.70;;;;;;;13.79;77.91;98154.31;5076203;28;20196;-73
2023/06/04 04:34:54;;;;;;;5.20;4.57;;;;;;;13.81;77.88;98151.41;5076424;28;20204;-73
2023/06/04 04:37:22;;;;;;;6.50;4.10;;;;;;;13.70;77.38;98152.28;5076183;28;20227;-73
2023/06/04 04:39:51;;;;;;;6.30;4.87;;;;;;;13.88;77.56;98144.09;5076268;28;20201;-73
2023/06/04 04:42:18;;;;;;;6.40;4.43;;;;;;;13.79;77.12;98151.66;5076296;28;20208;-73
2023/06/04 04:44:47;;;;;;;6.40;5.07;;;;;;;13.96;77.47;98152.53;5076145;28;20232;-73
2023/06/04 04:47:14;;;;;;;6.47;5.10;;;;;;;13.99;78.04;98152.06;5076107;28;20259;-73
2023/06/04 04:49:41;;;;;;;5.23;4.13;;;;;;;14.12;76.67;98157.13;5076152;28;20624;-73
2023/06/04 04:52:07;;;;;;;6.80;4.77;;;;;;;14.15;76.55;98148.63;5076131;28;20209;-73
2023/06/04 04:54:33;;;;;;;4.57;4.10;;;;;;;13.99;75.80;98152.06;5076052;28;20626;-73
2023/06/04 04:57:00;;;;;;;6.90;4.27;;;;;;;13.89;75.93;98156.41;5075663;28;20691;-73
2023/06/04 04:59:26;;;;;;;4.20;3.80;;;;;;;13.99;74.81;98151.25;5075992;28;20217;-73
2023/06/04 05:01:53;;;;;;;8.07;4.07;;;;;;;14.24;74.67;98157.91;5075946;28;20205;-73
2023/06/04 05:04:19;;;;;;;5.00;4.30;;;;;;;14.30;72.82;98154.25;5075794;28;20232;-73
2023/06/04 05:06:45;;;;;;;6.90;4.13;;;;;;;14.79;69.41;98152.72;5075552;28;20232;-73
2023/06/04 05:09:12;;;;;;;4.20;3.53;;;;;;;15.09;68.09;98158.53;5075292;28;20201;-73
2023/06/04 05:11:38;;;;;;;3.30;3.00;;;;;;;15.14;63.78;98164.78;5075694;28;20211;-73
2023/06/04 05:14:05;;;;;;;4.33;3.03;;;;;;;15.07;66.75;98166.81;5075835;28;20205;-73
2023/06/04 05:16:31;;;;;;;3.83;3.13;;;;;;;15.25;64.75;98165.75;5075572;28;20568;-73
2023/06/04 05:18:58;;;;;;;3.23;2.77;;;;;;;15.28;62.32;98168.75;5075254;28;20695;-73
2023/06/04 05:21:24;;;;;;;3.77;3.30;;;;;;;15.56;63.87;98170.53;5075881;28;20209;-73
2023/06/04 05:23:51;;;;;;;4.70;3.00;;;;;;;15.81;59.98;98176.22;5075310;28;20216;-73
2023/06/04 05:26:17;;;;;;;3.90;2.33;;;;;;;15.58;58.29;98179.94;5075292;28;20227;-73
2023/06/04 05:28:44;;;;;;;5.17;3.57;;;;;;;15.87;62.58;98186.75;5075381;28;20326;-74
2023/06/04 05:31:13;;;;;;;5.20;3.47;;;;;;;16.02;63.81;98183.44;5075301;28;20209;-74
2023/06/04 05:33:39;;;;;;;4.40;3.90;;;;;;;15.87;62.69;98189.44;5075188;28;20200;-74
2023/06/04 05:36:05;;;;;;;5.77;2.80;;;;;;;15.63;60.36;98187.22;5074718;28;20699;-74
2023/06/04 05:38:32;;;;;;;4.00;2.70;;;;;;;15.36;58.72;98183.63;5074806;28;20708;-74
2023/06/04 05:40:58;;;;;;;2.50;2.30;;;;;;;15.60;60.96;98188.53;5074760;28;20672;-73
2023/06/04 05:43:25;;;;;;;3.50;3.20;;;;;;;15.95;60.94;98196.22;5074652;28;20219;-73
2023/06/04 05:45:52;;;;;;;4.80;3.20;;;;;;;16.03;58.13;98193.13;5074713;28;20235;-73
2023/06/04 05:48:18;;;;;;;3.90;3.00;;;;;;;16.27;58.26;98194.47;5074513;28;20208;-73
2023/06/04 05:50:47;;;;;;;5.43;2.80;;;;;;;16.12;58.64;98189.75;5074489;28;20212;-73
2023/06/04 05:53:13;;;;;;;3.73;2.70;;;;;;;15.84;57.40;98195.28;5074520;28;20228;-73
2023/06/04 05:55:39;;;;;;;4.80;2.80;;;;;;;16.00;57.96;98193.59;5074722;28;20220;-73
2023/06/04 05:58:06;;;;;;;4.77;2.40;;;;;;;16.28;58.06;98196.91;5074771;28;20204;-73
2023/06/04 06:00:32;;;;;;;3.40;2.63;;;;;;;16.23;55.79;98201.38;5074674;28;20215;-73
2023/06/04 06:02:59;;;;;;;5.57;2.50;;;;;;;16.46;56.50;98193.91;5074553;28;20201;-73
2023/06/04 06:05:25;;;;;;;3.80;2.47;;;;;;;16.45;57.95;98194.16;5074123;28;20718;-73
2023/06/04 06:07:51;;;;;;;2.73;2.37;;;;;;;16.66;56.60;98204.88;5074473;28;20208;-73
2023/06/04 06:10:19;;;;;;;3.63;2.60;;;;;;;16.63;56.12;98199.16;5074283;28;20571;-73
2023/06/04 06:12:45;;;;;;;2.90;2.57;;;;;;;16.94;54.60;98201.06;5073987;28;20581;-73
2023/06/04 06:15:12;;;;;;;3.23;2.40;;;;;;;16.82;54.66;98197.75;5074167;28;20232;-73
2023/06/04 06:17:39;;;;;;;3.93;1.87;;;;;;;16.87;54.58;98200.50;5065705;28;20204;-74
2023/06/04 06:20:08;;;;;;;2.37;2.07;;;;;;;16.82;52.54;98209.28;5073454;28;20200;-74
2023/06/04 06:22:35;;;;;;;3.03;2.33;;;;;;;17.01;53.90;98209.75;5073962;28;20297;-74
2023/06/04 06:25:02;;;;;;;2.50;2.13;;;;;;;16.97;53.44;98208.63;5074164;28;20642;-74
2023/06/04 06:27:28;;;;;;;3.47;2.67;;;;;;;17.04;52.82;98206.53;5073943;28;20220;-74
2023/06/04 06:29:55;;;;;;;3.97;2.17;;;;;;;17.20;52.06;98214.44;5070864;28;20201;-74
2023/06/04 06:32:22;;;;;;;2.87;2.57;;;;;;;17.09;52.00;98215.44;5073535;28;20288;-74
2023/06/04 06:34:48;;;;;;;4.43;2.20;;;;;;;16.82;52.88;98220.03;5067612;28;20671;-74
2023/06/04 06:37:14;;;;;;;3.13;2.10;;;;;;;16.82;53.84;98217.34;5058280;28;20657;-74
2023/06/04 06:39:40;;;;;;;2.53;2.33;;;;;;;17.04;53.39;98212.72;5054243;28;20217;-74
2023/06/04 06:42:07;;;;;;;2.97;2.37;;;;;;;17.05;52.48;98214.31;5053672;28;20205;-74
2023/06/04 06:44:33;;;;;;;4.07;2.80;;;;;;;16.97;52.11;98217.47;5053706;28;20228;-74
2023/06/04 06:46:59;;;;;;;3.13;2.37;;;;;;;17.03;52.74;98216.47;5053794;28;20225;-74
2023/06/04 06:49:26;;;;;;;2.63;2.00;;;;;;;16.99;52.94;98225.28;5053794;28;20201;-74
2023/06/04 06:51:52;;;;;;;4.43;2.90;;;;;;;16.90;50.64;98221.44;5053743;28;20206;-74
2023/06/04 06:54:21;;;;;;;2.97;2.00;;;;;;;16.88;51.15;98224.38;5053699;28;20209;-74
2023/06/04 06:56:50;;;;;;;5.13;2.87;;;;;;;17.05;51.01;98214.31;5053531;28;20231;-74
2023/06/04 06:59:16;;;;;;;4.57;2.10;;;;;;;17.13;49.83;98226.47;5053620;28;20296;-74
2023/06/04 07:01:43;;;;;;;2.93;2.20;;;;;;;17.40;50.35;98222.72;5058836;28;20209;-74
2023/06/04 07:04:09;;;;;;;2.40;1.80;;;;;;;17.52;50.04;98219.81;5073569;28;20204;-74
2023/06/04 07:06:37;;;;;;;3.07;2.20;;;;;;;17.69;49.24;98221.28;5073422;28;20228;-74
2023/06/04 07:09:04;;;;;;;2.17;1.90;;;;;;;17.95;48.36;98225.72;5073502;28;20204;-74
2023/06/04 07:11:30;;;;;;;2.33;2.13;;;;;;;17.98;48.83;98221.69;5073537;28;20208;-75
2023/06/04 07:13:56;;;;;;;4.80;2.40;;;;;;;18.16;48.05;98219.38;5073181;28;20215;-75
2023/06/04 07:16:23;;;;;;;4.57;2.13;;;;;;;18.27;48.93;98228.31;5073559;28;20225;-75
2023/06/04 07:18:49;;;;;;;4.17;2.20;;;;;;;18.33;48.48;98229.97;5073396;28;20214;-74
2023/06/04 07:21:16;;;;;;;3.67;2.20;;;;;;;18.68;48.03;98225.47;5072960;28;20205;-74
2023/06/04 07:23:42;;;;;;;2.53;2.13;;;;;;;18.65;48.51;98226.03;5073128;28;20208;-74
2023/06/04 07:26:09;;;;;;;3.07;2.30;;;;;;;18.77;48.14;98226.56;5073201;28;20233;-74
2023/06/04 07:28:35;;;;;;;4.03;2.10;;;;;;;19.03;49.05;98222.00;5072968;28;20694;-74
2023/06/04 07:31:02;;;;;;;2.87;2.20;;;;;;;18.13;49.65;98230.66;5073437;28;20215;-75
2023/06/04 07:33:28;;;;;;;3.67;2.37;;;;;;;18.69;49.91;98221.69;5072783;28;20204;-75
2023/06/04 07:35:54;;;;;;;2.50;2.23;;;;;;;18.57;48.38;98234.63;5072971;28;20224;-74
2023/06/04 07:38:21;;;;;;;4.07;2.47;;;;;;;18.32;50.32;98236.38;5072970;28;20215;-74
2023/06/04 07:40:47;;;;;;;5.77;2.40;;;;;;;18.50;51.32;98228.66;5072949;28;20204;-74
2023/06/04 07:43:14;;;;;;;4.43;2.03;;;;;;;18.84;47.77;98223.63;5073283;28;20200;-74
2023/06/04 07:45:40;;;;;;;3.70;2.30;;;;;;;18.88;48.86;98220.13;5075329;28;20698;-75
2023/06/04 07:48:07;;;;;;;3.30;2.30;;;;;;;18.90;48.50;98226.06;5077264;28;20200;-75
2023/06/04 07:50:33;;;;;;;1.93;1.80;;;;;;;19.23;49.91;98222.88;5077224;28;20227;-75
2023/06/04 07:52:59;;;;;;;4.50;2.37;;;;;;;19.27;49.42;98221.25;5077181;28;20561;-75
2023/06/04 07:55:26;;;;;;;2.90;2.23;;;;;;;19.23;48.82;98220.16;5076555;28;20569;-75
2023/06/04 07:57:52;;;;;;;3.93;2.53;;;;;;;19.24;48.46;98216.41;5076987;28;20257;-75
2023/06/04 08:00:18;;;;;;;2.97;2.30;;;;;;;19.60;47.15;98217.19;5076483;28;20219;-74
2023/06/04 08:02:45;;;;;;;2.93;2.40;;;;;;;19.58;47.99;98209.34;5076883;28;20204;-74
2023/06/04 08:05:13;;;;;;;3.03;2.40;;;;;;;19.71;48.02;98213.38;5076592;28;20225;-74
2023/06/04 08:07:40;;;;;;;3.20;2.43;;;;;;;19.73;48.70;98201.22;5076412;28;20208;-74
2023/06/04 08:10:07;;;;;;;3.87;2.33;;;;;;;19.69;48.65;98202.06;5076711;28;20211;-74
2023/06/04 08:12:33;;;;;;;2.70;2.50;;;;;;;19.90;48.42;98216.31;5076495;28;20205;-74
2023/06/04 08:15:00;;;;;;;3.50;2.60;;;;;;;20.02;47.55;98209.50;5076621;28;20205;-74
2023/06/04 08:17:26;;;;;;;3.33;2.23;;;;;;;20.00;47.61;98205.47;5076034;28;20733;-74
2023/06/04 08:19:52;;;;;;;3.83;2.23;;;;;;;20.20;47.14;98203.53;5076341;28;20667;-74
2023/06/04 08:22:19;;;;;;;3.80;2.20;;;;;;;20.49;46.37;98204.50;5076401;28;20548;-75
2023/06/04 08:24:46;;;;;;;3.00;2.30;;;;;;;20.29;47.03;98198.34;5076420;28;20189;-75
2023/06/04 08:27:12;;;;;;;4.80;2.57;;;;;;;20.31;46.76;98204.28;5076396;28;20302;-75
2023/06/04 08:29:40;;;;;;;4.03;2.47;;;;;;;20.60;45.83;98197.09;5076538;28;20205;-75
2023/06/04 08:32:07;;;;;;;4.30;2.73;;;;;;;20.49;46.92;98201.78;5076429;28;20227;-74
2023/06/04 08:34:34;;;;;;;2.53;2.23;;;;;;;20.70;46.00;98205.19;5076122;28;20291;-74
2023/06/04 08:37:00;;;;;;;2.77;2.47;;;;;;;20.80;47.58;98205.09;5076279;28;20217;-74
2023/06/04 08:39:26;;;;;;;3.53;2.70;;;;;;;20.78;45.12;98207.25;5076322;28;20266;-74
2023/06/04 08:41:57;;;;;;;2.43;2.23;;;;;;;20.70;46.68;98211.38;5076106;28;20200;-74
2023/06/04 08:44:23;;;;;;;2.73;2.53;;;;;;;20.85;47.04;98205.06;5075909;28;20204;-74
2023/06/04 08:46:52;;;;;;;3.67;2.47;;;;;;;20.39;46.35;98214.53;5075863;28;20228;-74
2023/06/04 08:49:20;;;;;;;3.10;2.03;;;;;;;20.65;47.07;98210.59;5076130;28;20246;-74
2023/06/04 08:51:48;;;;;;;3.67;2.20;;;;;;;21.05;47.06;98213.88;5075766;28;20205;-74
2023/06/04 08:54:15;;;;;;;1.95;1.75;;;;;;;21.07;46.11;98200.06;5075720;28;20228;-74
2023/06/04 08:56:42;;;;;;;3.38;2.25;;;;;;;21.20;46.47;98202.91;5075281;28;20707;-74
2023/06/04 08:59:10;;;;;;;2.60;2.33;;;;;;;21.00;44.89;98204.97;5075864;28;20204;-74
2023/06/04 09:01:38;;;;;;;3.73;2.40;;;;;;;21.24;43.88;98209.38;5075803;28;20330;-74
2023/06/04 09:04:07;;;;;;;2.45;2.10;;;;;;;21.12;44.65;98198.13;5075511;28;20211;-74
2023/06/04 09:06:34;;;;;;;2.50;2.30;;;;;;;20.99;44.10;98206.91;5075310;28;20597;-74
2023/06/04 09:09:04;;;;;;;2.50;2.17;;;;;;;21.18;44.65;98202.41;5075763;28;20212;-74
2023/06/04 09:11:45;;;;;;;3.20;2.17;;;;;;;21.25;44.09;98207.50;5075041;28;20195;-74
2023/06/04 09:14:16;;;;;;;3.25;2.30;;;;;;;21.26;43.94;98209.91;5075525;28;20218;-74
2023/06/04 09:16:53;;;;;;;2.08;1.90;;;;;;;21.65;44.80;98207.91;5055116;28;20245;-74
2023/06/04 09:19:20;;;;;;;2.55;2.30;;;;;;;21.78;43.81;98203.75;5054763;28;20211;-74
2023/06/04 09:21:57;;;;;;;3.25;2.33;;;;;;;22.19;43.45;98213.03;5055110;28;20227;-74
2023/06/04 09:24:26;;;;;;;5.95;2.45;;;;;;;22.41;43.25;98207.88;5055121;28;20388;-78
2023/06/04 09:26:53;;;;;;;3.15;2.30;;;;;;;22.52;41.64;98204.78;5055981;28;20236;-77
2023/06/04 09:29:20;;;;;;;2.05;1.92;;;;;;;22.72;41.21;98220.75;5055606;28;20205;-77
2023/06/04 09:31:47;;;;;;;4.82;2.15;;;;;;;22.47;43.26;98215.69;5056275;28;20259;-77
2023/06/04 09:34:14;;;;;;;3.28;2.65;;;;;;;22.37;41.46;98215.78;5055403;28;20205;-77
2023/06/04 09:36:40;;;;;;;3.28;2.10;;;;;;;22.49;42.06;98212.69;5055240;28;20271;-77
2023/06/04 09:39:17;;;;;;;4.32;2.47;;;;;;;22.59;42.12;98212.53;5055153;28;20205;-77
2023/06/04 09:41:44;;;;;;;2.60;2.33;;;;;;;22.78;42.28;98216.88;5055169;28;20212;-77
2023/06/04 09:44:12;;;;;;;2.40;1.95;;;;;;;22.50;40.34;98208.88;5055283;28;20216;-77
2023/06/04 09:46:38;;;;;;;2.95;2.45;;;;;;;22.50;40.70;98198.84;5055243;28;20229;-78
2023/06/04 09:49:06;;;;;;;2.95;2.13;;;;;;;22.87;40.88;98187.19;5054860;28;20255;-77
2023/06/04 09:51:33;;;;;;;2.53;2.22;;;;;;;23.07;40.89;98197.72;5054624;28;20643;-77
2023/06/04 09:54:02;;;;;;;4.45;2.92;;;;;;;23.18;39.89;98193.75;5054497;28;20216;-74
2023/06/04 09:56:28;;;;;;;4.35;2.78;;;;;;;22.94;39.55;98191.16;5054537;28;20252;-74
2023/06/04 09:59:00;;;;;;;4.97;2.60;;;;;;;23.27;39.02;98202.84;5054756;28;20205;-74
2023/06/04 10:01:28;;;;;;;4.03;2.22;;;;;;;23.35;38.92;98197.56;5054791;28;20197;-78
2023/06/04 10:03:56;;;;;;;3.90;2.20;;;;;;;23.29;39.09;98192.53;5054795;28;20216;-78
2023/06/04 10:06:24;;;;;;;4.72;2.25;;;;;;;23.40;39.77;98196.66;5054676;28;20261;-78
2023/06/04 10:08:51;;;;;;;3.85;2.50;;;;;;;23.49;38.01;98192.16;5053859;28;20263;-77
2023/06/04 10:11:23;;;;;;;4.78;2.33;;;;;;;23.61;38.94;98192.50;5054614;28;20259;-78
2023/06/04 10:13:55;;;;;;;3.78;2.70;;;;;;;23.78;37.40;98195.44;5054837;28;20204;-77
2023/06/04 10:16:23;;;;;;;4.55;2.50;;;;;;;23.55;38.63;98188.25;5055116;28;20225;-78
2023/06/04 10:18:50;;;;;;;4.80;2.72;;;;;;;23.83;37.32;98190.69;5054619;28;20202;-77
2023/06/04 10:21:18;;;;;;;6.20;2.80;;;;;;;24.13;37.27;98195.59;5054463;28;20213;-77
2023/06/04 10:23:46;;;;;;;3.42;2.72;;;;;;;24.06;36.82;98187.03;5054772;28;20584;-78
2023/06/04 10:26:16;;;;;;;2.20;1.90;;;;;;;23.49;37.14;98189.44;5053736;28;20237;-78
2023/06/04 10:28:44;;;;;;;5.38;2.83;;;;;;;23.67;36.77;98183.97;5055052;28;20644;-78
2023/06/04 10:31:11;;;;;;;3.80;2.55;;;;;;;24.09;37.53;98185.59;5053824;28;20672;-77
2023/06/04 10:33:38;;;;;;;2.92;2.70;;;;;;;23.84;35.61;98181.44;5053779;28;20566;-77
2023/06/04 10:36:19;;;;;;;3.22;2.70;;;;;;;24.01;36.28;98181.69;5053743;28;20225;-77
2023/06/04 10:38:50;;;;;;;4.97;2.72;;;;;;;24.16;35.74;98181.38;5054200;28;20205;-77
2023/06/04 10:41:18;;;;;;;7.22;3.15;;;;;;;22.95;36.60;98175.69;5054041;28;20726;-78
2023/06/04 10:43:46;;;;;;;4.65;2.92;;;;;;;23.55;37.20;98180.09;5054058;28;20646;-77
2023/06/04 10:46:17;;;;;;;2.97;2.58;;;;;;;23.97;36.66;98169.81;5054091;28;20229;-78
2023/06/04 10:48:54;;;;;;;3.33;3.03;;;;;;;23.45;35.20;98177.56;5054755;28;20206;-78
2023/06/04 10:51:34;;;;;;;2.65;2.45;;;;;;;23.86;35.30;98184.69;5054244;28;20204;-78
2023/06/04 10:54:02;;;;;;;3.25;2.53;;;;;;;24.16;35.16;98177.88;5053908;28;20196;-77
2023/06/04 10:56:32;;;;;;;2.80;2.60;;;;;;;24.31;34.88;98175.63;5053634;28;20233;-77
2023/06/04 10:58:59;;;;;;;5.00;3.13;;;;;;;24.27;34.90;98181.97;5053883;28;20206;-78
2023/06/04 11:01:28;;;;;;;4.55;3.13;;;;;;;24.10;35.27;98179.09;5053323;28;20583;-78
2023/06/04 11:03:54;;;;;;;3.95;3.00;;;;;;;24.19;34.76;98178.06;5053530;28;20300;-78
2023/06/04 11:06:22;;;;;;;3.00;2.63;;;;;;;24.14;35.63;98171.91;5053422;28;20328;-78
2023/06/04 11:08:48;;;;;;;4.35;2.75;;;;;;;24.48;35.09;98178.53;5053395;28;20224;-77
2023/06/04 11:11:16;;;;;;;7.63;3.40;;;;;;;24.25;34.49;98173.34;5053425;28;20201;-77
2023/06/04 11:13:45;;;;;;;4.90;3.20;;;;;;;24.41;35.44;98175.41;5053161;28;20574;-77
2023/06/04 11:16:19;;;;;;;6.05;3.30;;;;;;;23.84;33.86;98177.94;5054639;28;20584;-78
2023/06/04 11:18:56;;;;;;;4.57;3.55;;;;;;;24.01;35.69;98170.81;5054232;28;20636;-77
2023/06/04 11:21:24;;;;;;;5.15;3.10;;;;;;;24.15;34.12;98162.69;5053215;28;20613;-77
2023/06/04 11:23:56;;;;;;;3.55;2.83;;;;;;;23.77;33.85;98174.81;5053363;28;20232;-78
2023/06/04 11:26:25;;;;;;;5.00;2.58;;;;;;;24.23;34.05;98172.81;5053375;28;20232;-77
2023/06/04 11:28:52;;;;;;;2.75;2.55;;;;;;;24.43;34.22;98175.91;5053361;28;20209;-77
2023/06/04 11:31:19;;;;;;;2.97;2.67;;;;;;;24.27;34.18;98169.19;5053339;28;20212;-77
2023/06/04 11:33:46;;;;;;;4.43;2.53;;;;;;;24.61;33.16;98166.06;5053076;28;20205;-77
2023/06/04 11:36:30;;;;;;;3.10;2.78;;;;;;;24.60;34.04;98170.66;5053347;28;20584;-77